createdAt,value
2023-10-25T00:04:27.589Z,99735.88
2023-10-25T00:09:29.149Z,99733.69
2023-10-25T00:14:30.612Z,99739.72
2023-10-25T00:19:32.113Z,99731.47
2023-10-25T00:24:33.731Z,99728.06
2023-10-25T00:29:35.238Z,99733.09
2023-10-25T00:34:36.776Z,99734.28
2023-10-25T00:39:38.283Z,99737.88
2023-10-25T00:44:39.901Z,99738.09
2023-10-25T00:49:41.592Z,99750.16
2023-10-25T00:54:43.761Z,99743.72
2023-10-25T00:59:46.294Z,99746.31
2023-10-25T01:04:47.826Z,99743.31
2023-10-25T01:09:49.353Z,99743.13
2023-10-25T01:14:50.838Z,99738.72
2023-10-25T01:19:52.368Z,99733.88
2023-10-25T01:24:53.951Z,99725.25
2023-10-25T01:29:55.448Z,99723.00
2023-10-25T01:34:56.941Z,99694.66
2023-10-25T01:39:58.466Z,99700.91
2023-10-25T01:45:00.055Z,99698.06
2023-10-25T01:50:01.699Z,99692.63
2023-10-25T01:55:03.573Z,99679.56
2023-10-25T02:00:05.369Z,99672.09
2023-10-25T02:05:14.166Z,99680.31
2023-10-25T02:10:15.757Z,99676.47
2023-10-25T02:15:17.263Z,99666.63
2023-10-25T02:20:19.168Z,99661.34
2023-10-25T02:25:20.793Z,99651.28
2023-10-25T02:30:22.332Z,99634.59
2023-10-25T02:35:23.867Z,99632.59
2023-10-25T02:40:25.374Z,99636.41
2023-10-25T02:45:26.909Z,99634.59
2023-10-25T02:50:30.156Z,99630.75
2023-10-25T02:55:33.536Z,99635.38
2023-10-25T03:00:35.089Z,99616.47
2023-10-25T03:05:36.580Z,99625.94
2023-10-25T03:10:38.050Z,99613.22
2023-10-25T03:15:39.691Z,99608.81
2023-10-25T03:20:41.251Z,99602.00
2023-10-25T03:25:42.782Z,99598.31
2023-10-25T03:30:44.313Z,99601.06
2023-10-25T03:35:52.852Z,99591.75
2023-10-25T03:41:08.048Z,99587.63
2023-10-25T03:46:09.923Z,99583.56
2023-10-25T03:51:11.636Z,99572.66
2023-10-25T03:56:13.235Z,99572.72
2023-10-25T04:01:15.459Z,99556.75
2023-10-25T04:06:17.002Z,99561.94
2023-10-25T04:11:18.511Z,99557.94
2023-10-25T04:16:20.240Z,99555.91
2023-10-25T04:21:21.729Z,99551.47
2023-10-25T04:26:23.236Z,99541.69
2023-10-25T04:31:24.733Z,99534.69
2023-10-25T04:36:26.330Z,99535.16
2023-10-25T04:41:27.813Z,99514.44
2023-10-25T04:46:29.394Z,99516.66
2023-10-25T04:51:30.937Z,99515.47
2023-10-25T04:56:32.487Z,99506.41
2023-10-25T05:01:34.090Z,99498.78
2023-10-25T05:06:35.827Z,99495.16
2023-10-25T05:11:38.219Z,99480.66
2023-10-25T05:16:39.887Z,99474.47
2023-10-25T05:21:43.085Z,99463.19
2023-10-25T05:26:45.023Z,99476.44
2023-10-25T05:31:46.742Z,99462.59
2023-10-25T05:36:48.535Z,99455.34
2023-10-25T05:41:51.257Z,99434.44
2023-10-25T05:46:52.895Z,99434.44
2023-10-25T05:51:54.604Z,99444.72
2023-10-25T05:56:56.244Z,99447.09
2023-10-25T06:02:14.024Z,99445.06
2023-10-25T06:07:16.837Z,99443.88
2023-10-25T06:12:18.562Z,99428.38
2023-10-25T06:17:20.140Z,99413.09
2023-10-25T06:22:21.630Z,99413.69
2023-10-25T06:27:23.182Z,99410.63
2023-10-25T06:32:24.878Z,99401.97
2023-10-25T06:37:26.812Z,99384.66
2023-10-25T06:42:28.579Z,99381.16
2023-10-25T06:47:30.254Z,99371.25
2023-10-25T06:52:31.989Z,99359.31
2023-10-25T06:57:33.731Z,99350.16
2023-10-25T07:02:41.891Z,99344.69
2023-10-25T07:07:43.717Z,99330.03
2023-10-25T07:12:45.412Z,99321.56
2023-10-25T07:17:46.943Z,99314.47
2023-10-25T07:22:48.492Z,99311.03
2023-10-25T07:27:50.141Z,99292.22
2023-10-25T07:32:51.681Z,99275.81
2023-10-25T07:37:53.209Z,99269.38
2023-10-25T07:42:54.828Z,99248.66
2023-10-25T07:47:56.355Z,99257.00
2023-10-25T07:52:57.840Z,99236.88
2023-10-25T08:03:03.911Z,99215.50
2023-10-25T08:08:05.676Z,99213.03
2023-10-25T08:13:07.330Z,99221.53
2023-10-25T08:18:08.891Z,99211.28
2023-10-25T08:23:10.465Z,99199.59
2023-10-25T08:28:13.750Z,99179.03
2023-10-25T08:33:15.372Z,99172.78
2023-10-25T08:38:16.884Z,99170.50
2023-10-25T08:43:18.913Z,99162.75
2023-10-25T08:48:20.503Z,99176.47
2023-10-25T08:53:25.753Z,99164.09
2023-10-25T08:58:27.500Z,99158.50
2023-10-25T09:03:31.920Z,99149.72
2023-10-25T09:08:34.369Z,99136.75
2023-10-25T09:13:37.057Z,99124.91
2023-10-25T09:18:40.463Z,99117.84
2023-10-25T09:23:42.218Z,99100.59
2023-10-25T09:28:44.344Z,99089.03
2023-10-25T09:33:47.698Z,99080.03
2023-10-25T09:38:50.617Z,99074.13
2023-10-25T09:43:52.793Z,99069.34
2023-10-25T09:48:57.201Z,99061.44
2023-10-25T09:54:01.712Z,99065.66
2023-10-25T09:59:03.523Z,99065.75
2023-10-25T10:04:14.181Z,99054.03
2023-10-25T10:09:17.747Z,99032.63
2023-10-25T10:14:29.323Z,99022.22
2023-10-25T10:19:31.812Z,99026.59
2023-10-25T10:24:44.312Z,99019.50
2023-10-25T10:29:49.689Z,99010.16
2023-10-25T10:34:51.213Z,98996.81
2023-10-25T10:40:13.027Z,98981.84
2023-10-25T10:45:15.518Z,98975.25
2023-10-25T10:50:18.193Z,98950.28
2023-10-25T10:55:21.058Z,98944.25
2023-10-25T11:00:22.728Z,98946.63
2023-10-25T11:05:24.352Z,98924.84
2023-10-25T11:10:26.115Z,98918.78
2023-10-25T11:15:30.010Z,98909.66
2023-10-25T11:20:32.319Z,98899.06
2023-10-25T11:25:33.945Z,98900.06
2023-10-25T11:30:35.771Z,98884.91
2023-10-25T11:35:41.612Z,98885.78
2023-10-25T11:40:43.987Z,98874.75
2023-10-25T11:45:46.394Z,98860.34
2023-10-25T11:50:48.038Z,98849.28
2023-10-25T12:02:00.705Z,98830.22
2023-10-25T12:07:04.246Z,98814.25
2023-10-25T12:12:07.688Z,98811.16
2023-10-25T12:17:09.453Z,98796.53
2023-10-25T12:22:12.415Z,98791.34
2023-10-25T12:27:13.999Z,98793.53
2023-10-25T12:32:15.509Z,98790.25
2023-10-25T12:37:17.191Z,98783.25
2023-10-25T12:42:18.815Z,98770.94
2023-10-25T12:47:20.499Z,98764.16
2023-10-25T12:52:22.209Z,98749.94
2023-10-25T12:57:23.729Z,98741.03
2023-10-25T13:02:25.219Z,98728.69
2023-10-25T13:07:26.741Z,98723.44
2023-10-25T13:12:28.254Z,98714.84
2023-10-25T13:17:29.857Z,98709.34
2023-10-25T13:22:31.384Z,98704.59
2023-10-25T13:27:32.909Z,98695.44
2023-10-25T13:32:34.475Z,98687.88
2023-10-25T13:37:36.020Z,98667.25
2023-10-25T13:42:37.585Z,98666.84
2023-10-25T13:47:39.260Z,98662.38
2023-10-25T13:52:40.959Z,98651.28
2023-10-25T13:57:42.463Z,98649.31
2023-10-25T14:02:44.259Z,98645.84
2023-10-25T14:07:45.978Z,98632.84
2023-10-25T14:12:47.503Z,98635.84
2023-10-25T14:17:49.080Z,98626.38
2023-10-25T14:22:50.886Z,98620.31
2023-10-25T14:27:55.585Z,98618.72
2023-10-25T14:32:57.220Z,98611.19
2023-10-25T14:38:00.231Z,98604.72
2023-10-25T14:43:01.799Z,98598.91
2023-10-25T14:48:03.987Z,98588.69
2023-10-25T14:53:05.970Z,98584.91
2023-10-25T14:58:07.572Z,98579.16
2023-10-25T15:03:09.199Z,98583.13
2023-10-25T15:08:10.967Z,98570.31
2023-10-25T15:13:12.593Z,98563.25
2023-10-25T15:18:14.182Z,98563.56
2023-10-25T15:23:15.828Z,98564.31
2023-10-25T15:28:17.341Z,98554.69
2023-10-25T15:33:18.875Z,98551.78
2023-10-25T15:38:20.441Z,98544.19
2023-10-25T15:43:21.945Z,98537.13
2023-10-25T15:48:23.567Z,98538.72
2023-10-25T15:53:25.281Z,98535.03
2023-10-25T15:58:26.872Z,98527.41
2023-10-25T16:03:28.553Z,98524.78
2023-10-25T16:08:31.024Z,98523.84
2023-10-25T16:13:32.751Z,98524.13
2023-10-25T16:18:34.940Z,98513.06
2023-10-25T16:23:39.953Z,98515.69
2023-10-25T16:28:42.241Z,98520.41
2023-10-25T16:33:43.872Z,98512.25
2023-10-25T16:38:45.645Z,98522.81
2023-10-25T16:43:47.264Z,98520.72
2023-10-25T16:48:49.283Z,98520.22
2023-10-25T16:53:51.240Z,98532.06
2023-10-25T16:58:52.749Z,98542.59
2023-10-25T17:03:54.426Z,98543.44
2023-10-25T17:08:57.053Z,98552.66
2023-10-25T17:13:58.725Z,98562.16
2023-10-25T17:19:00.310Z,98561.88
2023-10-25T17:24:01.897Z,98571.66
2023-10-25T17:29:03.493Z,98564.50
2023-10-25T17:34:05.099Z,98556.88
2023-10-25T17:39:06.654Z,98571.28
2023-10-25T17:44:08.193Z,98569.69
2023-10-25T17:49:09.750Z,98580.50
2023-10-25T17:54:11.724Z,98581.28
2023-10-25T17:59:13.259Z,98587.63
2023-10-25T18:04:14.960Z,98588.38
2023-10-25T18:09:16.709Z,98591.03
2023-10-25T18:14:18.437Z,98597.38
2023-10-25T18:19:19.987Z,98606.94
2023-10-25T18:24:21.650Z,98603.00
2023-10-25T18:29:23.237Z,98609.19
2023-10-25T18:34:24.973Z,98619.41
2023-10-25T18:39:26.610Z,98615.38
2023-10-25T18:44:28.121Z,98614.84
2023-10-25T18:49:29.600Z,98618.50
2023-10-25T18:54:31.145Z,98630.78
2023-10-25T18:59:32.731Z,98631.81
2023-10-25T19:06:28.729Z,98647.84
2023-10-25T19:09:55.882Z,98646.28
2023-10-25T19:15:17.465Z,98650.78
2023-10-25T19:20:19.142Z,98661.72
2023-10-25T19:25:20.893Z,98670.69
2023-10-25T19:30:22.582Z,98678.06
2023-10-25T19:35:24.145Z,98678.66
2023-10-25T19:40:25.810Z,98686.34
2023-10-25T19:45:27.381Z,98686.75
2023-10-25T19:50:28.894Z,98694.09
2023-10-25T19:55:30.465Z,98698.28
2023-10-25T20:00:31.990Z,98694.09
2023-10-25T20:05:33.501Z,98708.53
2023-10-25T20:10:35.008Z,98708.50
2023-10-25T20:15:36.495Z,98711.81
2023-10-25T20:20:41.455Z,98716.72
2023-10-25T20:25:49.860Z,98714.06
2023-10-25T20:30:51.439Z,98733.50
2023-10-25T20:35:56.743Z,98733.50
2023-10-25T20:40:58.258Z,98735.53
2023-10-25T20:45:59.898Z,98749.53
2023-10-25T20:51:02.049Z,98748.78
2023-10-25T20:56:03.648Z,98744.69
2023-10-25T21:01:05.897Z,98746.03
2023-10-25T21:06:07.530Z,98759.66
2023-10-25T21:11:09.938Z,98759.81
2023-10-25T21:16:13.962Z,98768.31
2023-10-25T21:21:18.359Z,98769.47
2023-10-25T21:26:19.935Z,98769.25
2023-10-25T21:31:21.471Z,98778.88
2023-10-25T21:36:23.088Z,98781.00
2023-10-25T21:41:24.578Z,98786.53
2023-10-25T21:46:26.260Z,98791.13
2023-10-25T21:51:27.820Z,98790.56
2023-10-25T21:56:29.325Z,98803.78
2023-10-25T22:01:30.857Z,98811.94
2023-10-25T22:06:32.379Z,98808.94
2023-10-25T22:11:33.923Z,98814.53
2023-10-25T22:16:35.658Z,98805.91
2023-10-25T22:21:37.190Z,98819.97
2023-10-25T22:26:38.698Z,98814.16
2023-10-25T22:31:40.335Z,98820.63
2023-10-25T22:36:41.818Z,98821.59
2023-10-25T22:41:43.428Z,98821.13
2023-10-25T22:46:45.028Z,98825.91
2023-10-25T22:51:46.538Z,98834.38
2023-10-25T22:56:48.555Z,98842.72
2023-10-25T23:01:50.030Z,98853.47
2023-10-25T23:06:51.539Z,98848.84
2023-10-25T23:11:53.070Z,98855.22
2023-10-25T23:16:54.545Z,98853.63
2023-10-25T23:21:56.057Z,98869.63
2023-10-25T23:26:57.550Z,98861.81
2023-10-25T23:31:59.062Z,98881.72
2023-10-25T23:37:00.561Z,98883.66
2023-10-25T23:42:02.072Z,98893.53
2023-10-25T23:47:03.715Z,98905.38
2023-10-25T23:52:05.436Z,98913.84
2023-10-25T23:57:06.980Z,98915.56
